Pagrindinis puslapis
METAR-TAF:

METAR-TAF

Oro uostai :

Kish Island, Iranas

platuma: 26-31-36N, ilguma: 053-58-54E, Aukštis: 30 m

Dabartinis oras

Ataskaita buvo paskelbta 29 minutes, ne 13:00 UTC
Vėjas 8 kt iš Vakarų/Šiaurės Vakarų
Temperatūra 36°C
Drėgmė 64%
Slėgis 1004 hPa
Matomumas: 8000 m

METAR: OIBK 191300Z 29008KT 8000 NSC 36/28 Q1004 NOSIG

Laikas: 17:59 (13:29 UTC)

Prognozė

Ataskaita buvo paskelbta 2 valandos ir 29 minutes, ne 11:00 UTC
Prognozė galioja nuo 19 metu 12 UTC su 20 metu 18 UTC
Vėjas 8 kt iš Vakarų
Matomumas: 6000 m
Laikinai
nuo 19 metu 12 UTC su 19 metu 15 UTC
Vėjas 10 kt iš Pietvakarių
Tikimybė 40%
nuo 20 metu 00 UTC su 20 metu 04 UTC
Matomumas: 5000 m
rūkana
Tapsmas
nuo 20 metu 04 UTC su 20 metu 06 UTC
Vėjas 10 kt iš Rytų/Pietryčių
Tapsmas
nuo 20 metu 13 UTC su 20 metu 15 UTC
Vėjas 8 kt iš Vakarų/Šiaurės Vakarų

TAF: OIBK 191100Z 1912/2018 28008KT 6000 NSC TEMPO 1912/1915 22010KT PROB40 2000/2004 5000 BR BECMG 2004/2006 12010KT BECMG 2013/2015 29008KT

Orai ataskaitas ir orų prognozės (METAR, TAF).

turimą stotys yra geltonos ir raudonos taškus žemėlapyje.

Perkelti pele per norėdami pamatyti stoties vardą.

Tada spustelėkite, norėdami matyti oro stebėjimo ir prognozės.

Norėdami pakeisti žemėlapį: spustelėkite ant žalios mygtukų su juodo kryžiaus žemyn,; žalią mygtuką su brūkšneliu, jei norite nutolinti; arba žalių rodyklių gretimoms žemėlapius.


METAR-TAF: